sensor_id;sensor_type;location;lat;lon;timestamp;P1;durP1;ratioP1;P2;durP2;ratioP2
50291;SDS011;36190;54.980;73.388;2022-09-16T00:00:55;35.28;;;20.40;;
50291;SDS011;36190;54.980;73.388;2022-09-16T00:03:24;33.03;;;18.73;;
50291;SDS011;36190;54.980;73.388;2022-09-16T00:05:51;37.83;;;18.42;;
50291;SDS011;36190;54.980;73.388;2022-09-16T00:08:19;32.38;;;18.95;;
50291;SDS011;36190;54.980;73.388;2022-09-16T00:10:47;34.80;;;20.33;;
50291;SDS011;36190;54.980;73.388;2022-09-16T00:13:15;37.60;;;19.85;;
50291;SDS011;36190;54.980;73.388;2022-09-16T00:15:43;38.70;;;19.67;;
50291;SDS011;36190;54.980;73.388;2022-09-16T00:18:11;34.67;;;18.92;;
50291;SDS011;36190;54.980;73.388;2022-09-16T00:20:44;35.30;;;17.40;;
50291;SDS011;36190;54.980;73.388;2022-09-16T00:23:11;30.25;;;15.73;;
50291;SDS011;36190;54.980;73.388;2022-09-16T00:25:39;27.65;;;15.02;;
50291;SDS011;36190;54.980;73.388;2022-09-16T00:28:06;28.02;;;15.52;;
50291;SDS011;36190;54.980;73.388;2022-09-16T00:30:34;29.25;;;15.57;;
50291;SDS011;36190;54.980;73.388;2022-09-16T00:33:01;29.13;;;15.38;;
50291;SDS011;36190;54.980;73.388;2022-09-16T00:35:29;29.77;;;14.52;;
50291;SDS011;36190;54.980;73.388;2022-09-16T00:37:57;29.33;;;15.90;;
50291;SDS011;36190;54.980;73.388;2022-09-16T00:40:25;29.83;;;15.85;;
50291;SDS011;36190;54.980;73.388;2022-09-16T00:42:52;27.63;;;15.90;;
50291;SDS011;36190;54.980;73.388;2022-09-16T00:45:20;26.80;;;15.23;;
50291;SDS011;36190;54.980;73.388;2022-09-16T00:47:50;28.52;;;15.77;;
50291;SDS011;36190;54.980;73.388;2022-09-16T00:50:21;29.50;;;17.15;;
50291;SDS011;36190;54.980;73.388;2022-09-16T00:52:54;29.80;;;16.10;;
50291;SDS011;36190;54.980;73.388;2022-09-16T00:55:25;31.73;;;17.35;;
50291;SDS011;36190;54.980;73.388;2022-09-16T00:57:56;32.70;;;18.17;;
50291;SDS011;36190;54.980;73.388;2022-09-16T01:00:30;35.42;;;19.33;;
50291;SDS011;36190;54.980;73.388;2022-09-16T01:02:58;30.63;;;17.98;;
50291;SDS011;36190;54.980;73.388;2022-09-16T01:05:25;37.05;;;18.48;;
50291;SDS011;36190;54.980;73.388;2022-09-16T01:07:54;30.48;;;17.42;;
50291;SDS011;36190;54.980;73.388;2022-09-16T01:10:23;35.92;;;17.08;;
50291;SDS011;36190;54.980;73.388;2022-09-16T01:12:53;34.08;;;16.92;;
50291;SDS011;36190;54.980;73.388;2022-09-16T01:15:23;30.80;;;15.98;;
50291;SDS011;36190;54.980;73.388;2022-09-16T01:18:02;32.63;;;16.55;;
50291;SDS011;36190;54.980;73.388;2022-09-16T01:20:46;31.77;;;15.27;;
50291;SDS011;36190;54.980;73.388;2022-09-16T01:23:41;29.20;;;15.32;;
50291;SDS011;36190;54.980;73.388;2022-09-16T01:26:39;30.88;;;14.80;;
50291;SDS011;36190;54.980;73.388;2022-09-16T01:32:33;30.35;;;15.02;;
50291;SDS011;36190;54.980;73.388;2022-09-16T01:35:12;37.42;;;15.85;;
50291;SDS011;36190;54.980;73.388;2022-09-16T01:37:50;38.25;;;16.75;;
50291;SDS011;36190;54.980;73.388;2022-09-16T01:40:27;35.35;;;18.02;;
50291;SDS011;36190;54.980;73.388;2022-09-16T01:43:02;36.67;;;18.30;;
50291;SDS011;36190;54.980;73.388;2022-09-16T01:45:37;38.08;;;17.40;;
50291;SDS011;36190;54.980;73.388;2022-09-16T01:48:11;33.67;;;17.45;;
50291;SDS011;36190;54.980;73.388;2022-09-16T01:50:48;35.50;;;17.60;;
50291;SDS011;36190;54.980;73.388;2022-09-16T01:53:23;37.63;;;17.48;;
50291;SDS011;36190;54.980;73.388;2022-09-16T01:55:59;33.55;;;17.17;;
50291;SDS011;36190;54.980;73.388;2022-09-16T02:01:03;34.25;;;16.55;;
50291;SDS011;36190;54.980;73.388;2022-09-16T02:03:38;35.30;;;18.25;;
50291;SDS011;36190;54.980;73.388;2022-09-16T02:06:11;41.95;;;18.00;;
50291;SDS011;36190;54.980;73.388;2022-09-16T02:08:44;35.10;;;16.38;;
50291;SDS011;36190;54.980;73.388;2022-09-16T02:11:17;41.55;;;17.75;;
50291;SDS011;36190;54.980;73.388;2022-09-16T02:13:47;35.67;;;17.88;;
50291;SDS011;36190;54.980;73.388;2022-09-16T02:16:19;34.58;;;17.15;;
50291;SDS011;36190;54.980;73.388;2022-09-16T02:18:56;45.20;;;19.40;;
50291;SDS011;36190;54.980;73.388;2022-09-16T02:21:27;42.08;;;17.13;;
50291;SDS011;36190;54.980;73.388;2022-09-16T02:23:58;47.30;;;17.95;;
50291;SDS011;36190;54.980;73.388;2022-09-16T02:26:32;36.92;;;17.63;;
50291;SDS011;36190;54.980;73.388;2022-09-16T02:29:05;50.67;;;18.67;;
50291;SDS011;36190;54.980;73.388;2022-09-16T02:31:36;44.45;;;18.73;;
50291;SDS011;36190;54.980;73.388;2022-09-16T02:34:06;52.20;;;19.70;;
50291;SDS011;36190;54.980;73.388;2022-09-16T02:36:38;47.70;;;18.60;;
50291;SDS011;36190;54.980;73.388;2022-09-16T02:39:10;45.13;;;18.42;;
50291;SDS011;36190;54.980;73.388;2022-09-16T02:41:42;44.65;;;19.33;;
50291;SDS011;36190;54.980;73.388;2022-09-16T02:44:09;40.67;;;18.67;;
50291;SDS011;36190;54.980;73.388;2022-09-16T02:46:38;41.53;;;18.80;;
50291;SDS011;36190;54.980;73.388;2022-09-16T02:49:17;41.83;;;18.83;;
50291;SDS011;36190;54.980;73.388;2022-09-16T02:51:54;46.30;;;20.85;;
50291;SDS011;36190;54.980;73.388;2022-09-16T02:54:27;46.42;;;20.65;;
50291;SDS011;36190;54.980;73.388;2022-09-16T02:57:02;42.05;;;20.50;;
50291;SDS011;36190;54.980;73.388;2022-09-16T02:59:30;46.10;;;20.52;;
50291;SDS011;36190;54.980;73.388;2022-09-16T03:01:58;43.83;;;21.52;;
50291;SDS011;36190;54.980;73.388;2022-09-16T03:04:28;39.85;;;21.48;;
50291;SDS011;36190;54.980;73.388;2022-09-16T03:06:55;36.22;;;20.00;;
50291;SDS011;36190;54.980;73.388;2022-09-16T03:09:23;43.80;;;21.45;;
50291;SDS011;36190;54.980;73.388;2022-09-16T03:12:01;33.45;;;19.38;;
50291;SDS011;36190;54.980;73.388;2022-09-16T03:15:02;44.47;;;20.25;;
50291;SDS011;36190;54.980;73.388;2022-09-16T03:17:41;46.20;;;22.02;;
50291;SDS011;36190;54.980;73.388;2022-09-16T03:20:28;45.55;;;21.33;;
50291;SDS011;36190;54.980;73.388;2022-09-16T03:23:08;41.65;;;19.02;;
50291;SDS011;36190;54.980;73.388;2022-09-16T03:25:46;39.00;;;19.92;;
50291;SDS011;36190;54.980;73.388;2022-09-16T03:28:24;39.92;;;20.25;;
50291;SDS011;36190;54.980;73.388;2022-09-16T03:30:58;42.25;;;19.33;;
50291;SDS011;36190;54.980;73.388;2022-09-16T03:33:32;40.80;;;18.92;;
50291;SDS011;36190;54.980;73.388;2022-09-16T03:36:04;49.38;;;21.42;;
50291;SDS011;36190;54.980;73.388;2022-09-16T03:38:36;46.40;;;20.95;;
50291;SDS011;36190;54.980;73.388;2022-09-16T03:41:06;42.50;;;20.08;;
50291;SDS011;36190;54.980;73.388;2022-09-16T03:43:35;36.67;;;19.33;;
50291;SDS011;36190;54.980;73.388;2022-09-16T03:46:05;39.47;;;19.98;;
50291;SDS011;36190;54.980;73.388;2022-09-16T03:48:36;46.58;;;21.85;;
50291;SDS011;36190;54.980;73.388;2022-09-16T03:51:05;44.33;;;21.02;;
50291;SDS011;36190;54.980;73.388;2022-09-16T03:53:32;40.42;;;21.98;;
50291;SDS011;36190;54.980;73.388;2022-09-16T03:56:00;38.97;;;20.52;;
50291;SDS011;36190;54.980;73.388;2022-09-16T03:58:28;54.72;;;21.73;;
50291;SDS011;36190;54.980;73.388;2022-09-16T04:00:55;38.90;;;21.15;;
50291;SDS011;36190;54.980;73.388;2022-09-16T04:03:22;39.20;;;19.77;;
50291;SDS011;36190;54.980;73.388;2022-09-16T04:05:51;41.75;;;20.58;;
50291;SDS011;36190;54.980;73.388;2022-09-16T04:08:20;34.33;;;18.08;;
50291;SDS011;36190;54.980;73.388;2022-09-16T04:10:52;43.28;;;19.48;;
50291;SDS011;36190;54.980;73.388;2022-09-16T04:13:20;35.25;;;17.73;;
50291;SDS011;36190;54.980;73.388;2022-09-16T04:15:48;24.13;;;11.38;;
50291;SDS011;36190;54.980;73.388;2022-09-16T04:18:16;24.73;;;9.20;;
50291;SDS011;36190;54.980;73.388;2022-09-16T04:20:44;18.23;;;8.52;;
50291;SDS011;36190;54.980;73.388;2022-09-16T04:23:11;23.85;;;8.57;;
50291;SDS011;36190;54.980;73.388;2022-09-16T04:25:40;18.83;;;7.22;;
50291;SDS011;36190;54.980;73.388;2022-09-16T04:28:07;15.18;;;6.38;;
50291;SDS011;36190;54.980;73.388;2022-09-16T04:30:35;18.55;;;7.47;;
50291;SDS011;36190;54.980;73.388;2022-09-16T04:33:02;19.27;;;6.90;;
50291;SDS011;36190;54.980;73.388;2022-09-16T04:35:30;22.98;;;7.65;;
50291;SDS011;36190;54.980;73.388;2022-09-16T04:37:57;26.92;;;9.48;;
50291;SDS011;36190;54.980;73.388;2022-09-16T04:40:24;21.08;;;7.90;;
50291;SDS011;36190;54.980;73.388;2022-09-16T04:42:53;21.85;;;7.20;;
50291;SDS011;36190;54.980;73.388;2022-09-16T04:45:20;20.77;;;7.45;;
50291;SDS011;36190;54.980;73.388;2022-09-16T04:47:48;15.68;;;5.97;;
50291;SDS011;36190;54.980;73.388;2022-09-16T04:50:21;14.80;;;5.70;;
50291;SDS011;36190;54.980;73.388;2022-09-16T04:52:49;12.90;;;5.50;;
50291;SDS011;36190;54.980;73.388;2022-09-16T04:55:16;16.02;;;6.00;;
50291;SDS011;36190;54.980;73.388;2022-09-16T04:57:47;17.00;;;5.50;;
50291;SDS011;36190;54.980;73.388;2022-09-16T05:00:16;15.52;;;5.28;;
50291;SDS011;36190;54.980;73.388;2022-09-16T05:02:44;13.43;;;5.05;;
50291;SDS011;36190;54.980;73.388;2022-09-16T05:05:11;13.00;;;4.90;;
50291;SDS011;36190;54.980;73.388;2022-09-16T05:07:41;13.10;;;4.70;;
50291;SDS011;36190;54.980;73.388;2022-09-16T05:10:08;15.68;;;4.82;;
50291;SDS011;36190;54.980;73.388;2022-09-16T05:12:36;11.73;;;3.80;;
50291;SDS011;36190;54.980;73.388;2022-09-16T05:15:04;9.63;;;3.92;;
50291;SDS011;36190;54.980;73.388;2022-09-16T05:17:33;14.27;;;3.60;;
50291;SDS011;36190;54.980;73.388;2022-09-16T05:20:01;13.02;;;4.63;;
50291;SDS011;36190;54.980;73.388;2022-09-16T05:22:28;10.52;;;5.25;;
50291;SDS011;36190;54.980;73.388;2022-09-16T05:24:56;11.40;;;4.90;;
50291;SDS011;36190;54.980;73.388;2022-09-16T05:27:23;11.52;;;4.40;;
50291;SDS011;36190;54.980;73.388;2022-09-16T05:29:52;11.68;;;4.18;;
50291;SDS011;36190;54.980;73.388;2022-09-16T05:32:19;11.15;;;4.53;;
50291;SDS011;36190;54.980;73.388;2022-09-16T05:34:48;14.18;;;4.93;;
50291;SDS011;36190;54.980;73.388;2022-09-16T05:37:15;14.20;;;4.63;;
50291;SDS011;36190;54.980;73.388;2022-09-16T05:39:43;14.45;;;4.65;;
50291;SDS011;36190;54.980;73.388;2022-09-16T05:42:10;15.30;;;4.95;;
50291;SDS011;36190;54.980;73.388;2022-09-16T05:44:37;12.93;;;4.40;;
50291;SDS011;36190;54.980;73.388;2022-09-16T05:47:05;12.10;;;4.75;;
50291;SDS011;36190;54.980;73.388;2022-09-16T05:49:32;10.18;;;5.20;;
50291;SDS011;36190;54.980;73.388;2022-09-16T05:52:01;13.32;;;4.57;;
50291;SDS011;36190;54.980;73.388;2022-09-16T05:54:28;12.13;;;4.22;;
50291;SDS011;36190;54.980;73.388;2022-09-16T05:56:56;11.68;;;4.07;;
50291;SDS011;36190;54.980;73.388;2022-09-16T05:59:23;10.75;;;4.57;;
50291;SDS011;36190;54.980;73.388;2022-09-16T06:01:50;24.15;;;6.75;;
50291;SDS011;36190;54.980;73.388;2022-09-16T06:04:18;11.00;;;3.90;;
50291;SDS011;36190;54.980;73.388;2022-09-16T06:06:45;10.73;;;4.43;;
50291;SDS011;36190;54.980;73.388;2022-09-16T06:09:15;12.02;;;4.55;;
50291;SDS011;36190;54.980;73.388;2022-09-16T06:11:44;34.00;;;7.22;;
50291;SDS011;36190;54.980;73.388;2022-09-16T06:14:14;12.13;;;5.55;;
50291;SDS011;36190;54.980;73.388;2022-09-16T06:16:42;19.17;;;5.55;;
50291;SDS011;36190;54.980;73.388;2022-09-16T06:19:11;15.30;;;7.75;;
50291;SDS011;36190;54.980;73.388;2022-09-16T06:21:40;14.65;;;8.40;;
50291;SDS011;36190;54.980;73.388;2022-09-16T06:24:07;15.63;;;5.30;;
50291;SDS011;36190;54.980;73.388;2022-09-16T06:26:37;8.98;;;4.68;;
50291;SDS011;36190;54.980;73.388;2022-09-16T06:29:05;7.65;;;3.72;;
50291;SDS011;36190;54.980;73.388;2022-09-16T06:31:34;10.65;;;4.30;;
50291;SDS011;36190;54.980;73.388;2022-09-16T06:34:02;11.73;;;5.30;;
50291;SDS011;36190;54.980;73.388;2022-09-16T06:36:32;7.88;;;3.58;;
50291;SDS011;36190;54.980;73.388;2022-09-16T06:39:00;10.60;;;4.38;;
50291;SDS011;36190;54.980;73.388;2022-09-16T06:41:29;10.57;;;4.30;;
50291;SDS011;36190;54.980;73.388;2022-09-16T06:43:59;10.77;;;4.30;;
50291;SDS011;36190;54.980;73.388;2022-09-16T06:46:27;7.82;;;3.53;;
50291;SDS011;36190;54.980;73.388;2022-09-16T06:48:55;12.63;;;4.25;;
50291;SDS011;36190;54.980;73.388;2022-09-16T06:51:24;6.95;;;3.30;;
50291;SDS011;36190;54.980;73.388;2022-09-16T06:53:53;12.55;;;3.55;;
50291;SDS011;36190;54.980;73.388;2022-09-16T06:56:21;12.52;;;3.85;;
50291;SDS011;36190;54.980;73.388;2022-09-16T06:58:49;12.98;;;4.40;;
50291;SDS011;36190;54.980;73.388;2022-09-16T07:01:19;9.85;;;4.00;;
50291;SDS011;36190;54.980;73.388;2022-09-16T07:03:48;10.90;;;5.30;;
50291;SDS011;36190;54.980;73.388;2022-09-16T07:06:19;10.80;;;4.40;;
50291;SDS011;36190;54.980;73.388;2022-09-16T07:08:47;16.67;;;4.40;;
50291;SDS011;36190;54.980;73.388;2022-09-16T07:11:15;12.23;;;3.78;;
50291;SDS011;36190;54.980;73.388;2022-09-16T07:13:44;9.02;;;3.80;;
50291;SDS011;36190;54.980;73.388;2022-09-16T07:16:13;9.25;;;3.80;;
50291;SDS011;36190;54.980;73.388;2022-09-16T07:18:43;9.50;;;3.60;;
50291;SDS011;36190;54.980;73.388;2022-09-16T07:21:11;10.70;;;3.60;;
50291;SDS011;36190;54.980;73.388;2022-09-16T07:23:40;15.70;;;6.18;;
50291;SDS011;36190;54.980;73.388;2022-09-16T07:26:09;9.50;;;3.60;;
50291;SDS011;36190;54.980;73.388;2022-09-16T07:28:39;9.45;;;3.70;;
50291;SDS011;36190;54.980;73.388;2022-09-16T07:31:08;10.40;;;3.88;;
50291;SDS011;36190;54.980;73.388;2022-09-16T07:33:37;8.68;;;3.30;;
50291;SDS011;36190;54.980;73.388;2022-09-16T07:36:09;16.77;;;3.67;;
50291;SDS011;36190;54.980;73.388;2022-09-16T07:38:37;10.52;;;4.45;;
50291;SDS011;36190;54.980;73.388;2022-09-16T07:41:05;8.60;;;3.67;;
50291;SDS011;36190;54.980;73.388;2022-09-16T07:43:33;12.63;;;3.35;;
50291;SDS011;36190;54.980;73.388;2022-09-16T07:46:00;12.50;;;3.35;;
50291;SDS011;36190;54.980;73.388;2022-09-16T07:48:28;15.55;;;3.80;;
50291;SDS011;36190;54.980;73.388;2022-09-16T07:50:56;11.82;;;3.22;;
50291;SDS011;36190;54.980;73.388;2022-09-16T07:53:27;8.88;;;4.22;;
50291;SDS011;36190;54.980;73.388;2022-09-16T07:55:55;10.25;;;4.68;;
50291;SDS011;36190;54.980;73.388;2022-09-16T07:58:27;9.38;;;3.50;;
50291;SDS011;36190;54.980;73.388;2022-09-16T08:00:55;16.38;;;3.33;;
50291;SDS011;36190;54.980;73.388;2022-09-16T08:03:22;8.30;;;3.08;;
50291;SDS011;36190;54.980;73.388;2022-09-16T08:05:49;11.20;;;3.15;;
50291;SDS011;36190;54.980;73.388;2022-09-16T08:08:17;8.73;;;2.90;;
50291;SDS011;36190;54.980;73.388;2022-09-16T08:10:52;14.85;;;4.35;;
50291;SDS011;36190;54.980;73.388;2022-09-16T08:13:20;8.07;;;3.00;;
50291;SDS011;36190;54.980;73.388;2022-09-16T08:15:48;18.20;;;4.13;;
50291;SDS011;36190;54.980;73.388;2022-09-16T08:18:15;10.02;;;3.00;;
50291;SDS011;36190;54.980;73.388;2022-09-16T08:20:43;16.33;;;4.22;;
50291;SDS011;36190;54.980;73.388;2022-09-16T08:23:10;11.98;;;4.25;;
50291;SDS011;36190;54.980;73.388;2022-09-16T08:25:38;10.32;;;3.75;;
50291;SDS011;36190;54.980;73.388;2022-09-16T08:28:12;9.32;;;3.30;;
50291;SDS011;36190;54.980;73.388;2022-09-16T08:30:40;13.40;;;3.90;;
50291;SDS011;36190;54.980;73.388;2022-09-16T08:33:08;9.63;;;2.85;;
50291;SDS011;36190;54.980;73.388;2022-09-16T08:35:35;7.20;;;3.05;;
50291;SDS011;36190;54.980;73.388;2022-09-16T08:38:03;6.55;;;2.60;;
50291;SDS011;36190;54.980;73.388;2022-09-16T08:40:32;9.38;;;3.08;;
50291;SDS011;36190;54.980;73.388;2022-09-16T08:43:03;6.35;;;2.72;;
50291;SDS011;36190;54.980;73.388;2022-09-16T08:45:41;7.40;;;2.78;;
50291;SDS011;36190;54.980;73.388;2022-09-16T08:48:20;9.43;;;2.97;;
50291;SDS011;36190;54.980;73.388;2022-09-16T08:50:57;8.82;;;2.90;;
50291;SDS011;36190;54.980;73.388;2022-09-16T08:53:30;19.00;;;3.97;;
50291;SDS011;36190;54.980;73.388;2022-09-16T08:56:02;9.57;;;3.50;;
50291;SDS011;36190;54.980;73.388;2022-09-16T08:58:34;8.15;;;2.92;;
50291;SDS011;36190;54.980;73.388;2022-09-16T09:01:13;12.20;;;3.58;;
50291;SDS011;36190;54.980;73.388;2022-09-16T09:03:45;6.68;;;2.40;;
50291;SDS011;36190;54.980;73.388;2022-09-16T09:06:15;8.48;;;3.00;;
50291;SDS011;36190;54.980;73.388;2022-09-16T09:09:04;7.03;;;2.75;;
50291;SDS011;36190;54.980;73.388;2022-09-16T09:11:43;19.80;;;4.20;;
50291;SDS011;36190;54.980;73.388;2022-09-16T09:14:28;6.47;;;2.85;;
50291;SDS011;36190;54.980;73.388;2022-09-16T09:17:07;13.02;;;3.40;;
50291;SDS011;36190;54.980;73.388;2022-09-16T09:19:45;13.07;;;3.85;;
50291;SDS011;36190;54.980;73.388;2022-09-16T09:22:49;8.48;;;3.30;;
50291;SDS011;36190;54.980;73.388;2022-09-16T09:25:30;7.35;;;3.00;;
50291;SDS011;36190;54.980;73.388;2022-09-16T09:28:07;5.97;;;2.67;;
50291;SDS011;36190;54.980;73.388;2022-09-16T09:30:51;7.90;;;3.00;;
50291;SDS011;36190;54.980;73.388;2022-09-16T09:33:29;9.02;;;2.72;;
50291;SDS011;36190;54.980;73.388;2022-09-16T09:36:14;9.10;;;2.55;;
50291;SDS011;36190;54.980;73.388;2022-09-16T09:39:05;6.85;;;2.65;;
50291;SDS011;36190;54.980;73.388;2022-09-16T09:41:44;6.00;;;2.35;;
50291;SDS011;36190;54.980;73.388;2022-09-16T09:44:22;8.95;;;2.80;;
50291;SDS011;36190;54.980;73.388;2022-09-16T09:47:00;9.18;;;3.72;;
50291;SDS011;36190;54.980;73.388;2022-09-16T09:49:33;8.30;;;3.13;;
50291;SDS011;36190;54.980;73.388;2022-09-16T09:54:33;9.90;;;3.83;;
50291;SDS011;36190;54.980;73.388;2022-09-16T09:57:03;11.77;;;3.35;;
50291;SDS011;36190;54.980;73.388;2022-09-16T09:59:36;7.88;;;3.08;;
50291;SDS011;36190;54.980;73.388;2022-09-16T10:02:14;6.95;;;2.50;;
50291;SDS011;36190;54.980;73.388;2022-09-16T10:04:45;6.88;;;2.55;;
50291;SDS011;36190;54.980;73.388;2022-09-16T10:07:14;8.38;;;3.03;;
50291;SDS011;36190;54.980;73.388;2022-09-16T10:09:46;7.80;;;2.70;;
50291;SDS011;36190;54.980;73.388;2022-09-16T10:12:28;8.47;;;2.60;;
50291;SDS011;36190;54.980;73.388;2022-09-16T10:14:57;8.43;;;2.70;;
50291;SDS011;36190;54.980;73.388;2022-09-16T10:17:25;11.18;;;3.75;;
50291;SDS011;36190;54.980;73.388;2022-09-16T10:19:56;9.18;;;4.35;;
50291;SDS011;36190;54.980;73.388;2022-09-16T10:22:26;8.73;;;3.10;;
50291;SDS011;36190;54.980;73.388;2022-09-16T10:24:55;18.27;;;14.55;;
50291;SDS011;36190;54.980;73.388;2022-09-16T10:27:25;17.70;;;12.70;;
50291;SDS011;36190;54.980;73.388;2022-09-16T10:30:06;11.30;;;3.90;;
50291;SDS011;36190;54.980;73.388;2022-09-16T10:32:44;11.13;;;4.50;;
50291;SDS011;36190;54.980;73.388;2022-09-16T10:35:19;9.98;;;4.10;;
50291;SDS011;36190;54.980;73.388;2022-09-16T10:37:50;8.77;;;5.10;;
50291;SDS011;36190;54.980;73.388;2022-09-16T10:40:19;14.07;;;4.28;;
50291;SDS011;36190;54.980;73.388;2022-09-16T10:42:49;12.60;;;5.63;;
50291;SDS011;36190;54.980;73.388;2022-09-16T10:45:21;10.90;;;3.22;;
50291;SDS011;36190;54.980;73.388;2022-09-16T10:47:52;10.55;;;5.07;;
50291;SDS011;36190;54.980;73.388;2022-09-16T10:50:22;7.20;;;3.28;;
50291;SDS011;36190;54.980;73.388;2022-09-16T10:52:51;11.25;;;4.82;;
50291;SDS011;36190;54.980;73.388;2022-09-16T10:55:20;7.97;;;3.30;;
50291;SDS011;36190;54.980;73.388;2022-09-16T10:57:50;10.63;;;3.85;;
50291;SDS011;36190;54.980;73.388;2022-09-16T11:00:19;10.63;;;3.70;;
50291;SDS011;36190;54.980;73.388;2022-09-16T11:02:54;8.95;;;3.72;;
50291;SDS011;36190;54.980;73.388;2022-09-16T11:05:42;8.95;;;3.28;;
50291;SDS011;36190;54.980;73.388;2022-09-16T11:08:32;20.98;;;4.63;;
50291;SDS011;36190;54.980;73.388;2022-09-16T11:11:05;10.13;;;3.30;;
50291;SDS011;36190;54.980;73.388;2022-09-16T11:16:17;11.45;;;3.70;;
50291;SDS011;36190;54.980;73.388;2022-09-16T11:18:56;7.22;;;2.83;;
50291;SDS011;36190;54.980;73.388;2022-09-16T11:27:42;7.97;;;3.13;;
50291;SDS011;36190;54.980;73.388;2022-09-16T11:30:15;9.88;;;2.90;;
50291;SDS011;36190;54.980;73.388;2022-09-16T11:32:50;10.90;;;4.07;;
50291;SDS011;36190;54.980;73.388;2022-09-16T11:35:37;7.65;;;2.70;;
50291;SDS011;36190;54.980;73.388;2022-09-16T11:38:26;11.30;;;3.28;;
50291;SDS011;36190;54.980;73.388;2022-09-16T11:41:06;12.38;;;3.83;;
50291;SDS011;36190;54.980;73.388;2022-09-16T11:43:54;19.30;;;4.10;;
50291;SDS011;36190;54.980;73.388;2022-09-16T11:46:42;18.90;;;4.72;;
50291;SDS011;36190;54.980;73.388;2022-09-16T11:49:24;17.27;;;4.45;;
50291;SDS011;36190;54.980;73.388;2022-09-16T11:52:10;13.90;;;4.00;;
50291;SDS011;36190;54.980;73.388;2022-09-16T11:57:51;18.83;;;5.63;;
50291;SDS011;36190;54.980;73.388;2022-09-16T12:00:21;26.23;;;14.45;;
50291;SDS011;36190;54.980;73.388;2022-09-16T12:02:51;28.85;;;13.07;;
50291;SDS011;36190;54.980;73.388;2022-09-16T12:05:26;31.75;;;10.93;;
50291;SDS011;36190;54.980;73.388;2022-09-16T12:08:02;13.25;;;6.50;;
50291;SDS011;36190;54.980;73.388;2022-09-16T12:10:38;16.65;;;5.72;;
50291;SDS011;36190;54.980;73.388;2022-09-16T12:13:14;11.10;;;4.97;;
50291;SDS011;36190;54.980;73.388;2022-09-16T12:15:45;14.55;;;4.95;;
50291;SDS011;36190;54.980;73.388;2022-09-16T12:18:16;9.90;;;3.47;;
50291;SDS011;36190;54.980;73.388;2022-09-16T12:20:48;10.88;;;4.60;;
50291;SDS011;36190;54.980;73.388;2022-09-16T12:23:21;15.20;;;4.78;;
50291;SDS011;36190;54.980;73.388;2022-09-16T12:25:56;13.15;;;4.55;;
50291;SDS011;36190;54.980;73.388;2022-09-16T12:28:30;10.75;;;4.88;;
50291;SDS011;36190;54.980;73.388;2022-09-16T12:31:03;15.55;;;6.18;;
50291;SDS011;36190;54.980;73.388;2022-09-16T12:33:39;18.67;;;7.53;;
50291;SDS011;36190;54.980;73.388;2022-09-16T12:36:11;29.38;;;8.40;;
50291;SDS011;36190;54.980;73.388;2022-09-16T12:38:42;17.35;;;7.80;;
50291;SDS011;36190;54.980;73.388;2022-09-16T12:41:16;24.02;;;8.40;;
50291;SDS011;36190;54.980;73.388;2022-09-16T12:44:00;17.13;;;6.68;;
50291;SDS011;36190;54.980;73.388;2022-09-16T12:46:54;22.40;;;7.50;;
50291;SDS011;36190;54.980;73.388;2022-09-16T12:52:44;15.70;;;6.32;;
50291;SDS011;36190;54.980;73.388;2022-09-16T12:55:38;16.23;;;6.40;;
50291;SDS011;36190;54.980;73.388;2022-09-16T13:01:21;24.08;;;8.85;;
50291;SDS011;36190;54.980;73.388;2022-09-16T13:03:52;19.83;;;8.10;;
50291;SDS011;36190;54.980;73.388;2022-09-16T13:06:24;20.92;;;8.68;;
50291;SDS011;36190;54.980;73.388;2022-09-16T13:08:53;22.98;;;8.85;;
50291;SDS011;36190;54.980;73.388;2022-09-16T13:11:22;36.50;;;10.63;;
50291;SDS011;36190;54.980;73.388;2022-09-16T13:13:54;20.02;;;9.20;;
50291;SDS011;36190;54.980;73.388;2022-09-16T13:16:30;25.48;;;8.27;;
50291;SDS011;36190;54.980;73.388;2022-09-16T13:22:04;30.92;;;10.63;;
50291;SDS011;36190;54.980;73.388;2022-09-16T13:24:54;24.98;;;9.95;;
50291;SDS011;36190;54.980;73.388;2022-09-16T13:27:28;24.10;;;9.95;;
50291;SDS011;36190;54.980;73.388;2022-09-16T13:30:15;22.63;;;10.10;;
50291;SDS011;36190;54.980;73.388;2022-09-16T13:32:58;18.10;;;9.63;;
50291;SDS011;36190;54.980;73.388;2022-09-16T13:35:35;22.58;;;10.65;;
50291;SDS011;36190;54.980;73.388;2022-09-16T13:38:19;26.65;;;11.65;;
50291;SDS011;36190;54.980;73.388;2022-09-16T13:40:52;26.58;;;10.95;;
50291;SDS011;36190;54.980;73.388;2022-09-16T13:43:28;35.33;;;12.48;;
50291;SDS011;36190;54.980;73.388;2022-09-16T13:46:02;25.25;;;12.43;;
50291;SDS011;36190;54.980;73.388;2022-09-16T13:48:34;26.45;;;11.45;;
50291;SDS011;36190;54.980;73.388;2022-09-16T13:51:06;42.30;;;13.33;;
50291;SDS011;36190;54.980;73.388;2022-09-16T13:53:42;32.50;;;15.88;;
50291;SDS011;36190;54.980;73.388;2022-09-16T13:56:17;53.47;;;28.92;;
50291;SDS011;36190;54.980;73.388;2022-09-16T13:59:01;115.65;;;63.05;;
50291;SDS011;36190;54.980;73.388;2022-09-16T14:01:44;103.55;;;55.90;;
50291;SDS011;36190;54.980;73.388;2022-09-16T14:04:23;81.57;;;48.03;;
50291;SDS011;36190;54.980;73.388;2022-09-16T14:07:09;94.18;;;49.78;;
50291;SDS011;36190;54.980;73.388;2022-09-16T14:09:51;66.65;;;39.22;;
50291;SDS011;36190;54.980;73.388;2022-09-16T14:12:27;63.97;;;36.28;;
50291;SDS011;36190;54.980;73.388;2022-09-16T14:15:03;62.95;;;34.15;;
50291;SDS011;36190;54.980;73.388;2022-09-16T14:17:35;56.33;;;31.50;;
50291;SDS011;36190;54.980;73.388;2022-09-16T14:20:08;59.55;;;34.00;;
50291;SDS011;36190;54.980;73.388;2022-09-16T14:22:41;67.90;;;33.60;;
50291;SDS011;36190;54.980;73.388;2022-09-16T14:28:14;70.53;;;41.33;;
50291;SDS011;36190;54.980;73.388;2022-09-16T14:30:44;61.97;;;35.10;;
50291;SDS011;36190;54.980;73.388;2022-09-16T14:33:18;54.58;;;31.50;;
50291;SDS011;36190;54.980;73.388;2022-09-16T14:35:49;54.08;;;33.92;;
50291;SDS011;36190;54.980;73.388;2022-09-16T14:38:20;66.07;;;41.90;;
50291;SDS011;36190;54.980;73.388;2022-09-16T14:40:57;58.03;;;35.67;;
50291;SDS011;36190;54.980;73.388;2022-09-16T14:43:25;52.08;;;28.60;;
50291;SDS011;36190;54.980;73.388;2022-09-16T14:45:55;39.50;;;22.33;;
50291;SDS011;36190;54.980;73.388;2022-09-16T14:48:28;39.08;;;23.40;;
50291;SDS011;36190;54.980;73.388;2022-09-16T14:51:00;48.90;;;19.17;;
50291;SDS011;36190;54.980;73.388;2022-09-16T14:53:29;33.92;;;17.17;;
50291;SDS011;36190;54.980;73.388;2022-09-16T14:55:58;25.95;;;13.85;;
50291;SDS011;36190;54.980;73.388;2022-09-16T14:58:26;30.02;;;14.07;;
50291;SDS011;36190;54.980;73.388;2022-09-16T15:00:57;27.90;;;12.77;;
50291;SDS011;36190;54.980;73.388;2022-09-16T15:03:30;22.52;;;11.38;;
50291;SDS011;36190;54.980;73.388;2022-09-16T15:06:02;26.42;;;9.27;;
50291;SDS011;36190;54.980;73.388;2022-09-16T15:08:37;18.37;;;10.53;;
50291;SDS011;36190;54.980;73.388;2022-09-16T15:11:10;31.17;;;17.08;;
50291;SDS011;36190;54.980;73.388;2022-09-16T15:13:40;41.72;;;24.92;;
50291;SDS011;36190;54.980;73.388;2022-09-16T15:16:10;36.33;;;23.25;;
50291;SDS011;36190;54.980;73.388;2022-09-16T15:18:41;35.35;;;20.77;;
50291;SDS011;36190;54.980;73.388;2022-09-16T15:21:10;23.42;;;13.40;;